Time;durP1;ratioP1;P1;durP2;ratioP2;P2;SDS_P1;SDS_P2;PMS_P1;PMS_P2;Temp;Humidity;BMP_temperature;BMP_pressure;BME280_temperature;BME280_humidity;BME280_pressure;Samples;Min_cycle;Max_cycle;Signal;HPM_P1;HPM_P2
2021/05/15 00:02:06;;;;;;;2.03;1.52;;;;;;;8.17;80.09;98589.22;5012565;28;20041;-61
2021/05/15 00:04:31;;;;;;;3.22;1.70;;;;;;;8.15;79.94;98585.97;5012863;28;20034;-61
2021/05/15 00:06:56;;;;;;;5.50;1.80;;;;;;;8.09;80.57;98584.28;5012406;28;20041;-61
2021/05/15 00:09:22;;;;;;;1.60;1.50;;;;;;;8.14;80.26;98578.22;5012638;28;20049;-61
2021/05/15 00:11:47;;;;;;;3.20;1.70;;;;;;;8.14;79.90;98573.69;5012364;28;20034;-60
2021/05/15 00:14:13;;;;;;;2.47;1.70;;;;;;;7.92;81.42;98578.91;4995286;28;20033;-61
2021/05/15 00:16:38;;;;;;;2.10;1.60;;;;;;;7.77;81.65;98581.31;5011174;28;20060;-60
2021/05/15 00:19:04;;;;;;;2.20;1.63;;;;;;;7.76;81.57;98571.69;5012816;28;20026;-61
2021/05/15 00:21:29;;;;;;;2.65;1.80;;;;;;;7.66;82.10;98571.50;5012448;28;20042;-61
2021/05/15 00:23:54;;;;;;;4.90;1.70;;;;;;;7.65;82.15;98573.38;4996180;28;20416;-61
2021/05/15 00:26:20;;;;;;;3.30;1.80;;;;;;;7.56;82.24;98567.63;5016367;28;20408;-61
2021/05/15 00:28:46;;;;;;;4.15;1.92;;;;;;;7.60;82.05;98569.81;5016832;28;20358;-61
2021/05/15 00:31:11;;;;;;;4.35;1.75;;;;;;;7.49;82.62;98568.81;5016015;28;20049;-61
2021/05/15 00:33:37;;;;;;;4.47;2.00;;;;;;;7.65;82.15;98567.25;5016599;28;20022;-61
2021/05/15 00:36:03;;;;;;;2.70;1.85;;;;;;;7.52;82.58;98566.47;5016041;28;20045;-61
2021/05/15 00:38:28;;;;;;;2.78;1.92;;;;;;;7.52;82.55;98563.81;5016426;28;20025;-61
2021/05/15 00:40:54;;;;;;;3.40;1.90;;;;;;;7.36;83.14;98561.88;5015997;28;20044;-61
2021/05/15 00:43:19;;;;;;;4.85;1.90;;;;;;;7.46;82.74;98562.13;5016277;28;20033;-61
2021/05/15 00:45:45;;;;;;;3.97;1.98;;;;;;;7.34;83.28;98559.47;5016013;28;20046;-62
2021/05/15 00:48:11;;;;;;;3.78;1.85;;;;;;;7.29;83.44;98555.91;5016327;28;20391;-61
2021/05/15 00:50:36;;;;;;;3.60;2.08;;;;;;;7.28;83.56;98557.75;4998130;28;20030;-61
2021/05/15 00:53:02;;;;;;;3.72;2.00;;;;;;;7.30;83.57;98557.53;5015949;28;20030;-61
2021/05/15 00:55:28;;;;;;;3.30;2.00;;;;;;;7.23;83.87;98556.84;5015141;28;20030;-61
2021/05/15 00:57:54;;;;;;;3.50;2.10;;;;;;;7.18;83.51;98554.09;5016150;28;20194;-61
2021/05/15 01:00:20;;;;;;;3.88;2.00;;;;;;;7.08;84.02;98541.38;5015712;28;20116;-61
2021/05/15 01:02:45;;;;;;;2.55;1.90;;;;;;;7.04;84.07;98551.69;5016173;28;20097;-61
2021/05/15 01:05:11;;;;;;;3.75;1.90;;;;;;;7.02;84.19;98550.31;5015583;28;20026;-60
2021/05/15 01:07:37;;;;;;;4.93;1.80;;;;;;;6.99;84.47;98546.28;4998157;28;20101;-61
2021/05/15 01:10:03;;;;;;;4.18;2.03;;;;;;;6.91;84.54;98543.94;5015328;28;20405;-61
2021/05/15 01:12:30;;;;;;;3.53;1.80;;;;;;;6.96;84.90;98549.38;5015806;28;20025;-61
2021/05/15 01:14:55;;;;;;;3.92;2.20;;;;;;;6.96;85.04;98544.06;5015868;28;20030;-61
2021/05/15 01:17:20;;;;;;;3.20;2.03;;;;;;;6.94;85.07;98542.66;5015161;28;20084;-61
2021/05/15 01:19:46;;;;;;;2.95;1.80;;;;;;;7.01;85.37;98543.34;4981835;28;20473;-61
2021/05/15 01:22:12;;;;;;;4.38;2.00;;;;;;;7.02;85.41;98545.78;5014937;28;20615;-61
2021/05/15 01:24:39;;;;;;;2.88;2.20;;;;;;;7.05;84.85;98539.19;5015751;28;20076;-60
2021/05/15 01:27:06;;;;;;;2.85;1.88;;;;;;;7.05;84.86;98542.66;5014950;28;20036;-60
2021/05/15 01:29:31;;;;;;;4.50;2.03;;;;;;;7.03;84.97;98542.06;5015584;28;20081;-61
2021/05/15 01:31:57;;;;;;;2.97;1.80;;;;;;;7.01;85.40;98532.69;5014938;28;20444;-61
2021/05/15 01:34:22;;;;;;;4.45;2.08;;;;;;;6.99;84.78;98540.94;5014823;28;20030;-61
2021/05/15 01:36:47;;;;;;;4.18;2.20;;;;;;;6.96;85.16;98536.06;5014887;28;20034;-61
2021/05/15 01:39:14;;;;;;;3.40;2.00;;;;;;;6.98;85.63;98539.31;5015573;28;20045;-61
2021/05/15 01:41:40;;;;;;;2.40;1.83;;;;;;;6.90;85.22;98537.00;5014892;28;20041;-61
2021/05/15 01:44:05;;;;;;;3.92;2.00;;;;;;;6.86;84.75;98533.19;5015403;28;20021;-61
2021/05/15 01:46:31;;;;;;;2.80;1.90;;;;;;;6.78;85.46;98534.38;5014727;28;20546;-61
2021/05/15 01:48:56;;;;;;;2.67;2.05;;;;;;;6.84;86.03;98536.09;4997699;28;20118;-61
2021/05/15 01:51:22;;;;;;;3.88;2.00;;;;;;;6.83;85.13;98531.00;4997056;28;20362;-61
2021/05/15 01:53:49;;;;;;;2.50;1.90;;;;;;;6.86;85.18;98530.53;5014961;28;20033;-61
2021/05/15 01:56:21;;;;;;;2.85;1.90;;;;;;;6.91;84.91;98527.97;5014590;28;20038;-61
2021/05/15 01:58:47;;;;;;;5.50;2.40;;;;;;;6.84;85.50;98528.13;4997276;28;20544;-61
2021/05/15 02:01:12;;;;;;;3.40;1.90;;;;;;;6.95;85.67;98523.78;5014425;28;20030;-61
2021/05/15 02:03:40;;;;;;;4.88;2.10;;;;;;;7.02;84.53;98524.47;5014730;28;20045;-61
2021/05/15 02:06:05;;;;;;;2.28;1.88;;;;;;;7.09;84.16;98511.81;5013082;28;20046;-61
2021/05/15 02:08:31;;;;;;;1.77;1.63;;;;;;;7.17;84.00;98509.84;5014537;28;20038;-61
2021/05/15 02:10:56;;;;;;;4.88;1.80;;;;;;;7.22;84.17;98510.72;5014310;28;20177;-61
2021/05/15 02:13:25;;;;;;;3.03;1.75;;;;;;;7.31;83.74;98501.31;5014676;28;20030;-61
2021/05/15 02:15:50;;;;;;;3.83;1.80;;;;;;;7.42;83.67;98502.31;5014219;28;20125;-61
2021/05/15 02:18:16;;;;;;;3.47;1.95;;;;;;;7.46;83.38;98498.13;5014617;28;20117;-61
2021/05/15 02:20:42;;;;;;;3.92;1.70;;;;;;;7.57;82.83;98494.56;4996504;28;20042;-61
2021/05/15 02:23:07;;;;;;;2.47;1.80;;;;;;;7.60;82.63;98489.81;5014702;28;20026;-61
2021/05/15 02:25:33;;;;;;;1.90;1.67;;;;;;;7.59;82.65;98490.84;5014225;28;20048;-61
2021/05/15 02:27:58;;;;;;;2.60;1.75;;;;;;;7.59;82.76;98498.84;5014399;28;20424;-61
2021/05/15 02:30:24;;;;;;;3.67;1.85;;;;;;;7.61;82.50;98496.75;5014061;28;20034;-61
2021/05/15 02:32:50;;;;;;;3.88;1.75;;;;;;;7.69;82.35;98491.03;5014282;28;20030;-61
2021/05/15 02:35:16;;;;;;;2.65;1.88;;;;;;;7.66;82.13;98495.00;5013763;28;20084;-61
2021/05/15 02:37:41;;;;;;;3.10;2.00;;;;;;;7.63;82.00;98492.78;5014437;28;20041;-61
2021/05/15 02:40:07;;;;;;;2.03;1.80;;;;;;;7.62;82.00;98491.19;5013991;28;20026;-61
2021/05/15 02:42:32;;;;;;;2.88;1.90;;;;;;;7.59;82.17;98485.50;5014282;28;20409;-61
2021/05/15 02:44:58;;;;;;;1.98;1.70;;;;;;;7.63;82.68;98486.66;4996423;28;20109;-60
2021/05/15 02:47:23;;;;;;;3.53;1.80;;;;;;;7.65;82.18;98482.69;5012699;28;20133;-60
2021/05/15 02:49:49;;;;;;;2.28;1.70;;;;;;;7.65;82.02;98487.22;4996033;28;20491;-61
2021/05/15 02:52:15;;;;;;;3.83;1.70;;;;;;;7.72;82.12;98485.22;5013226;28;20129;-61
2021/05/15 02:54:40;;;;;;;2.95;1.67;;;;;;;7.68;82.28;98484.88;5013766;28;20036;-61
2021/05/15 02:57:06;;;;;;;2.70;1.83;;;;;;;7.70;82.17;98481.97;5013365;28;20053;-61
2021/05/15 02:59:32;;;;;;;2.55;1.83;;;;;;;7.70;82.34;98481.97;5013719;28;20465;-61
2021/05/15 03:01:57;;;;;;;2.13;1.70;;;;;;;7.72;81.95;98470.00;5013251;28;20041;-60
2021/05/15 03:04:23;;;;;;;2.42;1.80;;;;;;;7.76;81.57;98476.50;4996225;28;20366;-61
2021/05/15 03:06:48;;;;;;;4.13;2.10;;;;;;;7.76;81.63;98481.00;5013296;28;20030;-61
2021/05/15 03:09:14;;;;;;;4.13;1.95;;;;;;;7.82;81.81;98476.56;4992585;28;20050;-60
2021/05/15 03:11:39;;;;;;;4.93;2.10;;;;;;;7.78;82.25;98473.56;4993679;28;20041;-60
2021/05/15 03:14:04;;;;;;;3.50;2.10;;;;;;;7.75;82.69;98464.19;4992716;28;20061;-63
2021/05/15 03:16:31;;;;;;;4.13;2.20;;;;;;;7.82;82.51;98472.03;4993582;28;20389;-60
2021/05/15 03:18:56;;;;;;;3.92;2.20;;;;;;;7.74;83.04;98467.13;4993919;28;20045;-61
2021/05/15 03:21:22;;;;;;;4.35;2.40;;;;;;;7.71;82.91;98456.91;4993588;28;20493;-61
2021/05/15 03:23:47;;;;;;;2.90;1.90;;;;;;;7.73;83.26;98462.81;4993874;28;20037;-61
2021/05/15 03:26:12;;;;;;;3.78;2.28;;;;;;;7.72;83.67;98463.88;4993362;28;20041;-61
2021/05/15 03:28:38;;;;;;;5.07;1.90;;;;;;;7.65;84.16;98457.88;4993772;28;20030;-60
2021/05/15 03:31:03;;;;;;;2.75;2.15;;;;;;;7.64;84.54;98467.75;4993232;28;20034;-60
2021/05/15 03:33:29;;;;;;;2.95;2.10;;;;;;;7.60;84.93;98466.59;4992263;28;20026;-61
2021/05/15 03:35:54;;;;;;;2.90;1.95;;;;;;;7.63;85.30;98462.66;4993279;28;20038;-60
2021/05/15 03:38:19;;;;;;;3.15;2.28;;;;;;;7.68;85.18;98465.41;4993592;28;20076;-61
2021/05/15 03:40:45;;;;;;;3.20;2.00;;;;;;;7.69;85.22;98453.69;4993362;28;20038;-61
2021/05/15 03:43:10;;;;;;;4.57;2.42;;;;;;;7.75;85.50;98455.38;4993675;28;20030;-61
2021/05/15 03:45:36;;;;;;;4.75;2.50;;;;;;;7.68;86.06;98460.06;4993188;28;20069;-61
2021/05/15 03:48:01;;;;;;;3.65;2.40;;;;;;;7.71;86.06;98454.22;4993476;28;20488;-61
2021/05/15 03:50:27;;;;;;;4.75;2.40;;;;;;;7.77;85.93;98461.28;4993307;28;20038;-61
2021/05/15 03:52:52;;;;;;;4.30;2.80;;;;;;;7.72;86.31;98458.53;4993605;28;20375;-61
2021/05/15 03:55:18;;;;;;;3.33;2.60;;;;;;;7.71;86.86;98462.25;4991782;28;20032;-60
2021/05/15 03:57:43;;;;;;;4.57;3.10;;;;;;;7.71;86.81;98457.72;4993359;28;20030;-61
2021/05/15 04:00:10;;;;;;;5.13;2.95;;;;;;;7.78;86.48;98474.38;4992981;28;20437;-61
2021/05/15 04:02:37;;;;;;;3.72;2.92;;;;;;;7.82;86.86;98469.38;4993405;28;20034;-61
2021/05/15 04:05:03;;;;;;;3.92;2.72;;;;;;;7.82;86.99;98466.69;5008303;28;20034;-61
2021/05/15 04:07:28;;;;;;;4.05;2.78;;;;;;;7.78;86.89;98469.03;4993624;28;20048;-61
2021/05/15 04:09:54;;;;;;;5.20;2.95;;;;;;;7.84;86.82;98461.94;5009342;28;20416;-61
2021/05/15 04:12:19;;;;;;;3.80;2.90;;;;;;;7.82;86.76;98464.03;5012353;28;20046;-61
2021/05/15 04:14:50;;;;;;;4.30;3.03;;;;;;;7.79;87.11;98459.19;4995257;28;20366;-60
2021/05/15 04:17:22;;;;;;;4.55;3.55;;;;;;;7.86;86.80;98467.00;5012331;28;20514;-61
2021/05/15 04:19:48;;;;;;;5.43;3.70;;;;;;;7.88;86.90;98467.56;5013112;28;20026;-60
2021/05/15 04:22:14;;;;;;;4.90;3.65;;;;;;;7.82;86.90;98464.03;5012358;28;20424;-61
2021/05/15 04:24:39;;;;;;;4.80;3.83;;;;;;;7.91;87.01;98462.59;5012847;28;20073;-61
2021/05/15 04:27:05;;;;;;;5.55;3.80;;;;;;;7.92;86.91;98458.84;5012565;28;20049;-61
2021/05/15 04:29:31;;;;;;;5.30;3.53;;;;;;;7.94;86.90;98472.75;5012681;28;20085;-61
2021/05/15 04:31:57;;;;;;;7.22;4.00;;;;;;;7.97;87.05;98472.25;5012382;28;20093;-61
2021/05/15 04:34:23;;;;;;;5.75;4.22;;;;;;;7.97;86.94;98468.78;5012666;28;20026;-61
2021/05/15 04:36:49;;;;;;;8.30;4.45;;;;;;;7.94;87.05;98470.09;5012251;28;20504;-62
2021/05/15 04:39:14;;;;;;;6.15;4.25;;;;;;;7.93;87.21;98473.78;5012665;28;20029;-61
2021/05/15 04:41:40;;;;;;;5.38;4.30;;;;;;;8.10;86.32;98471.13;4994485;28;20041;-61
2021/05/15 04:44:05;;;;;;;6.13;4.63;;;;;;;8.10;86.18;98464.97;4995163;28;20029;-61
2021/05/15 04:46:31;;;;;;;6.22;4.90;;;;;;;8.21;85.81;98467.56;5012293;28;20038;-62
2021/05/15 04:48:56;;;;;;;4.80;3.95;;;;;;;8.60;83.99;98469.41;5012572;28;20026;-62
2021/05/15 04:51:22;;;;;;;5.47;4.70;;;;;;;8.77;83.20;98472.84;5012264;28;20042;-62
2021/05/15 04:53:47;;;;;;;5.10;4.10;;;;;;;9.01;81.75;98465.38;5012241;28;20057;-62
2021/05/15 04:56:14;;;;;;;5.15;3.90;;;;;;;9.19;81.68;98480.28;5012125;28;20045;-62
2021/05/15 04:58:40;;;;;;;5.43;4.05;;;;;;;9.10;81.76;98480.97;5012429;28;20029;-62
2021/05/15 05:01:05;;;;;;;5.43;4.05;;;;;;;8.96;82.68;98477.84;5012159;28;20286;-62
2021/05/15 05:03:31;;;;;;;4.97;4.15;;;;;;;8.70;84.17;98476.75;5012653;28;20342;-62
2021/05/15 05:05:56;;;;;;;6.32;4.70;;;;;;;8.61;84.64;98474.53;5011963;28;20496;-62
2021/05/15 05:08:24;;;;;;;6.05;4.28;;;;;;;8.48;85.62;98477.53;5008005;28;20046;-61
2021/05/15 05:10:50;;;;;;;5.93;4.68;;;;;;;8.52;85.42;98477.88;5009713;28;20045;-61
2021/05/15 05:13:15;;;;;;;6.22;5.32;;;;;;;8.48;85.83;98477.53;4995043;28;20030;-61
2021/05/15 05:15:40;;;;;;;6.57;5.30;;;;;;;8.48;85.64;98472.19;4995917;28;20507;-61
2021/05/15 05:18:06;;;;;;;7.70;5.35;;;;;;;8.46;85.69;98473.50;4996381;28;20077;-61
2021/05/15 05:20:31;;;;;;;7.25;5.00;;;;;;;8.46;85.87;98484.19;4994695;28;20497;-61
2021/05/15 05:22:57;;;;;;;6.60;5.20;;;;;;;8.40;86.01;98473.44;4996249;28;20354;-61
2021/05/15 05:25:22;;;;;;;5.93;4.63;;;;;;;8.49;85.43;98475.69;4995662;28;20045;-62
2021/05/15 05:27:48;;;;;;;6.15;4.95;;;;;;;8.37;85.81;98481.91;4996056;28;20031;-62
2021/05/15 05:30:15;;;;;;;6.30;5.15;;;;;;;8.49;85.35;98481.84;4995457;28;20030;-62
2021/05/15 05:32:41;;;;;;;6.22;5.00;;;;;;;8.45;84.86;98486.06;4995030;28;20033;-62
2021/05/15 05:35:07;;;;;;;7.32;5.35;;;;;;;8.56;84.92;98478.97;5010733;28;20023;-62
2021/05/15 05:37:33;;;;;;;7.47;5.97;;;;;;;8.60;84.77;98475.56;4978411;28;20018;-62
2021/05/15 05:39:58;;;;;;;9.00;6.32;;;;;;;8.65;84.73;98480.16;4996033;28;20030;-62
2021/05/15 05:42:23;;;;;;;6.47;5.28;;;;;;;8.76;84.79;98479.25;4995480;28;20038;-63
2021/05/15 05:44:49;;;;;;;8.45;5.57;;;;;;;8.89;84.36;98479.94;4995902;28;20045;-62
2021/05/15 05:47:14;;;;;;;7.53;5.80;;;;;;;9.05;84.08;98487.06;5010495;28;20044;-62
2021/05/15 05:49:40;;;;;;;8.77;5.07;;;;;;;9.23;83.19;98480.56;4995935;28;20026;-62
2021/05/15 05:52:05;;;;;;;9.15;5.60;;;;;;;9.36;82.30;98476.69;4995196;28;20038;-62
2021/05/15 05:54:30;;;;;;;7.47;5.40;;;;;;;9.45;81.34;98480.53;4995728;28;20033;-62
2021/05/15 05:56:56;;;;;;;9.32;5.70;;;;;;;9.70;79.17;98474.59;4995063;28;20520;-62
2021/05/15 05:59:21;;;;;;;6.28;4.97;;;;;;;9.94;78.11;98478.53;4995541;28;20030;-62
2021/05/15 06:01:47;;;;;;;7.30;5.25;;;;;;;10.09;77.25;98480.50;4995233;28;20038;-62
2021/05/15 06:04:12;;;;;;;7.40;5.18;;;;;;;11.69;71.85;98490.81;4995535;28;20030;-62
2021/05/15 06:06:37;;;;;;;7.47;4.95;;;;;;;10.32;75.00;98481.22;4995116;28;20034;-62
2021/05/15 06:09:04;;;;;;;7.13;5.20;;;;;;;10.28;74.75;98480.13;5004506;28;20049;-62
2021/05/15 06:11:30;;;;;;;7.43;5.35;;;;;;;10.68;74.27;98489.44;5013114;28;20104;-62
2021/05/15 06:13:55;;;;;;;7.80;4.93;;;;;;;10.55;71.22;98488.03;4997238;28;20464;-62
2021/05/15 06:16:20;;;;;;;6.47;5.13;;;;;;;10.30;73.22;98483.34;5014243;28;20033;-61
2021/05/15 06:18:46;;;;;;;8.85;4.70;;;;;;;10.03;72.50;98481.53;4997387;28;20388;-62
2021/05/15 06:21:11;;;;;;;7.47;4.75;;;;;;;10.29;71.80;98479.06;5012998;28;20042;-61
2021/05/15 06:23:37;;;;;;;5.85;4.75;;;;;;;10.82;70.52;98477.19;5014674;28;20022;-62
2021/05/15 06:26:07;;;;;;;8.73;5.07;;;;;;;13.21;60.97;98487.25;5014040;28;20037;-62
2021/05/15 06:28:33;;;;;;;7.25;4.28;;;;;;;14.03;58.33;98480.22;5013266;28;20181;-62
2021/05/15 06:30:59;;;;;;;6.63;4.10;;;;;;;12.04;63.49;98473.09;5013897;28;20034;-61
2021/05/15 06:33:24;;;;;;;6.57;4.53;;;;;;;11.69;65.60;98474.69;4996591;28;20038;-61
2021/05/15 06:35:49;;;;;;;6.60;4.80;;;;;;;11.70;64.84;98481.66;5013831;28;20036;-61
2021/05/15 06:38:16;;;;;;;6.88;4.70;;;;;;;11.29;66.08;98470.88;4996583;28;20026;-61
2021/05/15 06:40:41;;;;;;;6.30;5.05;;;;;;;11.12;65.62;98481.03;4995916;28;20042;-62
2021/05/15 06:43:06;;;;;;;7.13;4.50;;;;;;;11.36;65.75;98484.84;4996895;28;20045;-62
2021/05/15 06:45:32;;;;;;;7.80;4.75;;;;;;;10.60;67.04;98492.63;5013805;28;20038;-61
2021/05/15 06:47:58;;;;;;;7.90;5.07;;;;;;;10.86;66.83;98488.19;5013844;28;20022;-62
2021/05/15 06:50:23;;;;;;;8.65;5.20;;;;;;;10.80;66.64;98496.19;4996101;28;20810;-62
2021/05/15 06:52:49;;;;;;;8.38;5.78;;;;;;;11.22;67.27;98481.06;5014042;28;20026;-62
2021/05/15 06:55:14;;;;;;;6.55;4.90;;;;;;;12.29;63.82;98489.19;5013567;28;20022;-62
2021/05/15 06:57:40;;;;;;;8.73;4.93;;;;;;;13.76;59.26;98488.00;5013875;28;20025;-62
2021/05/15 07:00:08;;;;;;;7.07;4.68;;;;;;;14.03;57.54;98493.72;5013707;28;20061;-63
2021/05/15 07:02:33;;;;;;;7.97;4.75;;;;;;;13.47;58.55;98496.81;5013753;28;20109;-62
2021/05/15 07:05:00;;;;;;;8.23;5.00;;;;;;;12.02;61.95;98486.78;5014010;28;20018;-62
2021/05/15 07:07:25;;;;;;;6.38;4.97;;;;;;;13.05;59.99;98481.94;5013377;28;20042;-62
2021/05/15 07:09:51;;;;;;;9.75;4.63;;;;;;;13.02;59.63;98485.19;4995971;28;20050;-62
2021/05/15 07:12:17;;;;;;;7.20;4.75;;;;;;;12.65;60.46;98480.22;5011880;28;20044;-61
2021/05/15 07:14:44;;;;;;;9.07;5.47;;;;;;;13.42;58.77;98487.97;4996453;28;20048;-62
2021/05/15 07:17:09;;;;;;;6.57;4.82;;;;;;;14.59;55.76;98489.69;4995685;28;20030;-62
2021/05/15 07:19:35;;;;;;;9.15;4.80;;;;;;;13.72;57.01;98479.66;5013770;28;20084;-60
2021/05/15 07:22:00;;;;;;;7.43;5.63;;;;;;;12.80;58.81;98477.47;5013144;28;20049;-61
2021/05/15 07:24:26;;;;;;;7.68;4.82;;;;;;;15.04;53.44;98471.34;5013569;28;20025;-62
2021/05/15 07:26:51;;;;;;;6.88;4.50;;;;;;;13.78;57.60;98470.47;5013359;28;20038;-60
2021/05/15 07:29:19;;;;;;;8.02;4.95;;;;;;;13.14;59.98;98466.84;5013390;28;20025;-60
2021/05/15 07:31:45;;;;;;;7.75;4.93;;;;;;;12.64;61.06;98460.59;5012823;28;20313;-62
2021/05/15 07:34:10;;;;;;;8.05;5.38;;;;;;;12.45;63.12;98459.59;5013261;28;20422;-62
2021/05/15 07:36:36;;;;;;;11.38;5.32;;;;;;;12.51;62.63;98463.88;5012883;28;20100;-61
2021/05/15 07:39:02;;;;;;;6.72;4.90;;;;;;;12.30;62.96;98463.94;5013327;28;20030;-61
2021/05/15 07:41:28;;;;;;;9.40;5.88;;;;;;;12.21;63.50;98459.41;4979068;28;20444;-61
2021/05/15 07:43:53;;;;;;;8.07;4.85;;;;;;;14.68;54.80;98462.91;4995645;28;20022;-61
2021/05/15 07:46:18;;;;;;;5.78;4.45;;;;;;;14.66;55.45;98465.06;5012434;28;20037;-61
2021/05/15 07:48:45;;;;;;;7.90;4.85;;;;;;;13.62;58.29;98460.09;4995628;28;20025;-61
2021/05/15 07:51:15;;;;;;;8.02;5.70;;;;;;;14.65;54.59;98458.88;5011160;28;20038;-61
2021/05/15 07:53:40;;;;;;;6.90;5.07;;;;;;;14.85;53.94;98460.53;5012958;28;20034;-62
2021/05/15 07:56:06;;;;;;;7.60;5.50;;;;;;;14.67;54.52;98453.19;5012772;28;20045;-61
2021/05/15 07:58:32;;;;;;;6.03;4.90;;;;;;;16.42;50.59;98449.44;5013045;28;20524;-61
2021/05/15 08:00:57;;;;;;;6.13;4.25;;;;;;;15.91;51.02;98451.16;5012675;28;20038;-63
2021/05/15 08:03:23;;;;;;;7.30;5.00;;;;;;;16.67;50.58;98452.75;5012896;28;20041;-62
2021/05/15 08:05:48;;;;;;;8.25;5.43;;;;;;;15.13;51.81;98441.00;4995171;28;20038;-62
2021/05/15 08:08:14;;;;;;;10.98;6.18;;;;;;;16.27;49.89;98449.72;5012847;28;20029;-61
2021/05/15 08:10:39;;;;;;;7.60;5.35;;;;;;;17.80;47.21;98459.28;5012453;28;20057;-62
2021/05/15 08:13:05;;;;;;;10.57;5.80;;;;;;;15.18;52.17;98452.53;5012944;28;20461;-61
2021/05/15 08:15:30;;;;;;;7.75;5.80;;;;;;;14.33;54.61;98447.88;4994737;28;20060;-61
2021/05/15 08:17:56;;;;;;;11.02;6.28;;;;;;;13.94;55.96;98441.50;5012663;28;20026;-61
2021/05/15 08:20:22;;;;;;;7.90;5.63;;;;;;;13.77;57.07;98441.13;5012317;28;20040;-62
2021/05/15 08:22:47;;;;;;;8.05;5.63;;;;;;;13.52;57.74;98445.63;5012664;28;20388;-62
2021/05/15 08:25:13;;;;;;;9.10;6.72;;;;;;;12.97;59.52;98454.81;5012672;28;20475;-62
2021/05/15 08:27:41;;;;;;;6.93;5.78;;;;;;;12.89;59.98;98445.44;4995157;28;20468;-63
2021/05/15 08:30:08;;;;;;;7.70;5.90;;;;;;;14.55;55.83;98450.91;5012188;28;20079;-61
2021/05/15 08:32:33;;;;;;;10.65;6.95;;;;;;;15.88;52.64;98453.66;5012579;28;20030;-61
2021/05/15 08:34:59;;;;;;;7.88;6.18;;;;;;;16.57;50.26;98446.47;5012760;28;20401;-62
2021/05/15 08:37:25;;;;;;;7.25;5.97;;;;;;;14.58;54.46;98444.94;5012261;28;20038;-62
2021/05/15 08:39:51;;;;;;;8.25;5.88;;;;;;;13.43;58.70;98441.13;4995226;28;20100;-61
2021/05/15 08:42:17;;;;;;;7.78;6.07;;;;;;;13.15;60.22;98440.72;5012289;28;20045;-63
2021/05/15 08:44:42;;;;;;;11.88;6.38;;;;;;;12.91;61.11;98452.16;4979722;28;20377;-62
2021/05/15 08:47:08;;;;;;;7.72;5.60;;;;;;;13.01;60.63;98439.75;5014788;28;20049;-63
2021/05/15 08:49:35;;;;;;;7.43;6.15;;;;;;;13.93;57.59;98434.53;5015256;28;20037;-63
2021/05/15 08:52:01;;;;;;;10.30;5.90;;;;;;;14.54;56.62;98432.31;5014110;28;20038;-62
2021/05/15 08:54:26;;;;;;;8.35;5.50;;;;;;;14.45;57.26;98427.53;5016213;28;20373;-62
2021/05/15 08:56:52;;;;;;;8.25;5.65;;;;;;;14.64;56.17;98424.09;4997631;28;20088;-63
2021/05/15 08:59:17;;;;;;;11.15;5.18;;;;;;;14.27;57.02;98433.66;5016204;28;20392;-63
2021/05/15 09:01:43;;;;;;;6.15;4.30;;;;;;;13.95;57.63;98432.34;5015457;28;20404;-62
2021/05/15 09:04:09;;;;;;;6.93;4.70;;;;;;;13.76;57.84;98428.75;5016208;28;20350;-63
2021/05/15 09:06:37;;;;;;;9.77;4.93;;;;;;;14.17;57.25;98421.06;5015441;28;20067;-62
2021/05/15 09:09:04;;;;;;;7.05;4.85;;;;;;;14.29;56.68;98420.69;5015794;28;20177;-62
2021/05/15 09:11:29;;;;;;;7.25;4.03;;;;;;;14.50;54.45;98409.66;5015296;28;20045;-63
2021/05/15 09:13:54;;;;;;;5.90;4.13;;;;;;;14.05;56.07;98414.47;4997944;28;20029;-62
2021/05/15 09:16:20;;;;;;;5.60;4.10;;;;;;;15.25;52.83;98417.06;5015351;28;20045;-63
2021/05/15 09:18:45;;;;;;;6.63;3.90;;;;;;;14.28;54.94;98411.00;5014299;28;20026;-62
2021/05/15 09:21:22;;;;;;;6.70;4.03;;;;;;;14.34;55.98;98406.34;5015211;28;20445;-62
2021/05/15 09:23:49;;;;;;;5.15;3.40;;;;;;;14.11;56.47;98405.25;5015737;28;20029;-62
2021/05/15 09:26:17;;;;;;;6.00;4.13;;;;;;;14.60;55.82;98405.00;5015270;28;20048;-63
2021/05/15 09:28:46;;;;;;;6.90;3.88;;;;;;;13.38;57.57;98401.59;5015600;28;20539;-62
2021/05/15 09:31:27;;;;;;;7.93;3.50;;;;;;;13.77;57.98;98411.50;5014959;28;20054;-63
2021/05/15 09:34:06;;;;;;;6.35;4.03;;;;;;;13.70;57.39;98402.94;4997729;28;20129;-63
2021/05/15 09:36:39;;;;;;;4.78;3.60;;;;;;;13.52;58.96;98399.84;5015212;28;20042;-63
2021/05/15 09:39:21;;;;;;;4.47;3.58;;;;;;;13.24;58.65;98397.91;5015419;28;20164;-62
2021/05/15 09:41:53;;;;;;;5.13;3.50;;;;;;;13.32;59.17;98405.41;5014927;28;20038;-63
2021/05/15 09:44:29;;;;;;;4.93;3.33;;;;;;;12.48;61.81;98406.09;5015171;28;20042;-62
2021/05/15 09:46:55;;;;;;;5.63;3.30;;;;;;;12.36;62.62;98412.88;5013643;28;20148;-63
2021/05/15 09:49:23;;;;;;;4.20;2.70;;;;;;;12.25;62.25;98406.72;5015335;28;20026;-63
2021/05/15 09:51:53;;;;;;;5.25;2.65;;;;;;;12.46;61.53;98408.25;5014683;28;20112;-64
2021/05/15 09:54:20;;;;;;;4.80;3.10;;;;;;;11.95;65.68;98402.22;4997541;28;20032;-62
2021/05/15 09:57:06;;;;;;;6.40;3.70;;;;;;;11.78;69.32;98407.84;5012924;28;20172;-62
2021/05/15 09:59:33;;;;;;;6.25;4.40;;;;;;;11.24;73.65;98409.19;5015086;28;20038;-63
2021/05/15 10:02:00;;;;;;;6.32;4.15;;;;;;;11.19;73.31;98411.88;4996905;28;20500;-63
2021/05/15 10:04:26;;;;;;;11.60;4.20;;;;;;;10.86;74.46;98413.94;5014951;28;20034;-64
2021/05/15 10:06:51;;;;;;;7.63;3.50;;;;;;;10.78;75.67;98406.41;5014587;28;20034;-64
2021/05/15 10:09:35;;;;;;;5.50;3.60;;;;;;;10.91;75.75;98411.28;5014789;28;20126;-64
2021/05/15 10:12:02;;;;;;;6.97;4.53;;;;;;;10.91;76.63;98405.91;5014234;28;20488;-63
2021/05/15 10:14:28;;;;;;;7.57;4.60;;;;;;;10.80;77.67;98393.53;4997128;28;20358;-65
2021/05/15 10:16:54;;;;;;;6.80;4.18;;;;;;;10.97;76.93;98394.13;5014373;28;20033;-64
2021/05/15 10:19:20;;;;;;;9.00;4.00;;;;;;;11.35;75.96;98389.34;5014769;28;20431;-64
2021/05/15 10:21:45;;;;;;;6.25;4.13;;;;;;;11.72;77.07;98398.19;5014202;28;20042;-64
2021/05/15 10:24:21;;;;;;;4.55;3.47;;;;;;;12.13;73.53;98392.78;5014797;28;20483;-64
2021/05/15 10:27:13;;;;;;;6.93;3.53;;;;;;;12.27;73.10;98389.22;5014261;28;20185;-64
2021/05/15 10:29:40;;;;;;;5.45;3.25;;;;;;;11.71;74.45;98391.22;4996692;28;20037;-64
2021/05/15 10:32:25;;;;;;;4.78;3.38;;;;;;;11.85;74.98;98386.88;4996297;28;20050;-64
2021/05/15 10:35:01;;;;;;;8.50;3.30;;;;;;;11.59;75.41;98380.75;5014546;28;20056;-64
2021/05/15 10:37:29;;;;;;;6.68;3.70;;;;;;;11.31;77.26;98384.78;5013089;28;20120;-65
2021/05/15 10:39:54;;;;;;;7.65;3.83;;;;;;;11.33;77.83;98391.50;5014591;28;20018;-64
2021/05/15 10:42:31;;;;;;;6.15;3.40;;;;;;;10.14;78.19;98384.16;5012578;28;20096;-64
2021/05/15 10:44:57;;;;;;;4.57;2.45;;;;;;;9.78;77.81;98383.13;5014545;28;20476;-64
2021/05/15 10:47:22;;;;;;;5.72;2.80;;;;;;;9.88;77.22;98374.34;5013133;28;20038;-64
2021/05/15 10:49:51;;;;;;;4.22;2.50;;;;;;;10.19;78.70;98371.88;4996720;28;20026;-64
2021/05/15 10:52:17;;;;;;;5.97;3.08;;;;;;;10.32;77.87;98364.19;5013632;28;20408;-64
2021/05/15 10:54:48;;;;;;;4.68;2.60;;;;;;;10.60;76.37;98364.00;5014080;28;20018;-64
2021/05/15 10:57:23;;;;;;;3.95;2.50;;;;;;;10.87;77.29;98356.56;5013604;28;20700;-65
2021/05/15 10:59:56;;;;;;;4.57;2.42;;;;;;;10.69;74.85;98341.00;5014193;28;20025;-64
2021/05/15 11:02:21;;;;;;;1.92;1.67;;;;;;;10.71;71.77;98330.81;5013548;28;20034;-64
2021/05/15 11:04:53;;;;;;;3.97;1.90;;;;;;;10.70;74.58;98321.94;5014146;28;20024;-64
2021/05/15 11:07:22;;;;;;;4.10;1.88;;;;;;;11.13;71.46;98338.66;4995031;28;20040;-64
2021/05/15 11:09:55;;;;;;;5.80;2.00;;;;;;;11.36;71.58;98331.13;5013586;28;20057;-64
2021/05/15 11:12:23;;;;;;;2.28;1.60;;;;;;;11.74;71.22;98324.38;4995994;28;20037;-64
2021/05/15 11:14:49;;;;;;;4.50;2.10;;;;;;;11.85;70.78;98325.94;4996196;28;20030;-64
2021/05/15 11:17:21;;;;;;;2.88;1.83;;;;;;;12.64;66.81;98323.50;5013287;28;20037;-64
2021/05/15 11:19:56;;;;;;;6.03;1.90;;;;;;;12.85;66.84;98318.00;5013716;28;20021;-64
2021/05/15 11:22:38;;;;;;;2.60;1.55;;;;;;;12.96;64.38;98311.47;5013285;28;20124;-64
2021/05/15 11:25:27;;;;;;;4.25;1.50;;;;;;;13.35;65.30;98311.47;5013091;28;20384;-64
2021/05/15 11:28:03;;;;;;;2.30;1.70;;;;;;;13.65;64.32;98308.75;5013469;28;20022;-64
2021/05/15 11:30:32;;;;;;;2.95;1.48;;;;;;;13.22;64.14;98295.13;4995533;28;20034;-64
2021/05/15 11:33:02;;;;;;;3.90;2.10;;;;;;;12.70;67.09;98306.28;5013587;28;20031;-64
2021/05/15 11:35:28;;;;;;;7.15;2.50;;;;;;;13.44;62.49;98287.41;5013188;28;20400;-64